Time;durP1;ratioP1;P1;durP2;ratioP2;P2;SDS_P1;SDS_P2;PMS_P1;PMS_P2;Temp;Humidity;BMP_temperature;BMP_pressure;BME280_temperature;BME280_humidity;BME280_pressure;Samples;Min_cycle;Max_cycle;Signal;HPM_P1;HPM_P2
2023/01/02 00:00:48;;;;;;;17.70;10.85;;;18.50;53.80;;;;;;5041688;28;20257;-80
2023/01/02 00:03:15;;;;;;;20.60;11.88;;;18.50;53.90;;;;;;5060930;28;20195;-80
2023/01/02 00:05:42;;;;;;;20.13;10.85;;;18.50;53.90;;;;;;5043120;28;20198;-80
2023/01/02 00:08:08;;;;;;;20.25;11.60;;;18.50;54.00;;;;;;5043201;28;20225;-80
2023/01/02 00:10:36;;;;;;;19.85;10.88;;;18.50;54.00;;;;;;5044734;28;20566;-80
2023/01/02 00:13:03;;;;;;;19.08;11.13;;;18.50;54.00;;;;;;5045268;28;20199;-80
2023/01/02 00:15:32;;;;;;;18.65;10.20;;;18.50;54.10;;;;;;5039806;28;20294;-80
2023/01/02 00:17:59;;;;;;;18.30;10.00;;;18.40;54.00;;;;;;5039791;28;20219;-79
2023/01/02 00:20:26;;;;;;;19.05;10.55;;;18.50;54.10;;;;;;5040462;28;20285;-80
2023/01/02 00:22:53;;;;;;;18.75;10.23;;;18.40;54.00;;;;;;5038335;28;20651;-79
2023/01/02 00:25:21;;;;;;;17.52;9.93;;;18.40;54.00;;;;;;5038420;28;20290;-80
2023/01/02 00:27:48;;;;;;;18.30;10.45;;;18.40;54.00;;;;;;5037814;28;20230;-79
2023/01/02 00:30:15;;;;;;;15.25;10.05;;;18.40;54.60;;;;;;5037548;28;20219;-80
2023/01/02 00:32:44;;;;;;;18.65;9.60;;;18.40;54.00;;;;;;5037470;28;20203;-80
2023/01/02 00:35:11;;;;;;;18.15;10.00;;;18.40;54.10;;;;;;5042352;28;20203;-79
2023/01/02 00:37:38;;;;;;;16.67;10.55;;;18.40;54.00;;;;;;5039567;28;20694;-79
2023/01/02 00:40:06;;;;;;;17.10;9.50;;;18.40;54.00;;;;;;5039064;28;20230;-80
2023/01/02 00:42:33;;;;;;;17.25;9.23;;;18.40;54.20;;;;;;5043028;28;20282;-80
2023/01/02 00:45:00;;;;;;;18.83;9.90;;;18.40;54.00;;;;;;5042842;28;20206;-80
2023/01/02 00:47:27;;;;;;;14.10;9.05;;;18.30;54.60;;;;;;5043068;28;20226;-80
2023/01/02 00:49:56;;;;;;;13.60;8.68;;;18.30;54.00;;;;;;5043113;28;20243;-80
2023/01/02 00:52:22;;;;;;;16.45;8.98;;;18.30;54.00;;;;;;5043465;28;20539;-79
2023/01/02 00:54:50;;;;;;;14.02;8.77;;;18.30;54.00;;;;;;5043877;28;20203;-79
2023/01/02 00:57:17;;;;;;;15.25;9.02;;;18.30;54.00;;;;;;5043496;28;20223;-80
2023/01/02 00:59:44;;;;;;;15.80;8.38;;;18.30;54.00;;;;;;5044721;28;20204;-80
2023/01/02 01:02:11;;;;;;;16.45;9.18;;;18.30;54.00;;;;;;5044416;28;20227;-80
2023/01/02 01:04:38;;;;;;;14.68;8.73;;;18.30;53.90;;;;;;5046854;28;20655;-80
2023/01/02 01:07:07;;;;;;;14.10;8.48;;;18.30;53.90;;;;;;5040588;28;20215;-80
2023/01/02 01:09:34;;;;;;;14.20;8.18;;;18.30;54.00;;;;;;5040724;28;20577;-80
2023/01/02 01:12:01;;;;;;;16.20;7.93;;;18.30;54.00;;;;;;5040561;28;20195;-80
2023/01/02 01:14:30;;;;;;;12.10;7.70;;;18.30;54.00;;;;;;5040362;28;20195;-81
2023/01/02 01:16:57;;;;;;;15.27;8.40;;;18.30;54.00;;;;;;5041090;28;20805;-80
2023/01/02 01:19:24;;;;;;;12.65;7.72;;;18.30;53.90;;;;;;5041335;28;20202;-80
2023/01/02 01:21:51;;;;;;;13.25;7.95;;;18.20;53.80;;;;;;5062896;28;20188;-80
2023/01/02 01:24:20;;;;;;;13.80;7.70;;;18.20;53.90;;;;;;5044305;28;20644;-80
2023/01/02 01:26:47;;;;;;;14.07;7.75;;;18.20;53.90;;;;;;5040528;28;20227;-80
2023/01/02 01:29:14;;;;;;;11.57;7.60;;;18.20;53.90;;;;;;5040621;28;20215;-80
2023/01/02 01:31:41;;;;;;;15.43;7.35;;;18.20;53.80;;;;;;5040619;28;20561;-80
2023/01/02 01:34:08;;;;;;;11.98;7.53;;;18.20;53.90;;;;;;5040729;28;20210;-80
2023/01/02 01:36:36;;;;;;;11.80;7.60;;;18.20;53.80;;;;;;5037915;28;20261;-80
2023/01/02 01:39:03;;;;;;;11.07;7.40;;;18.20;53.80;;;;;;5040198;28;20192;-80
2023/01/02 01:41:32;;;;;;;13.18;7.82;;;18.20;53.80;;;;;;5040104;28;20282;-81
2023/01/02 01:44:00;;;;;;;12.93;8.00;;;18.20;53.80;;;;;;5040145;28;20608;-81
2023/01/02 01:46:29;;;;;;;12.02;7.53;;;18.20;53.70;;;;;;5040375;28;20242;-80
2023/01/02 01:49:00;;;;;;;14.40;7.57;;;18.20;53.80;;;;;;5039999;28;20233;-81
2023/01/02 01:51:27;;;;;;;12.88;7.75;;;18.10;53.70;;;;;;5039504;28;20187;-80
2023/01/02 01:54:03;;;;;;;12.93;7.20;;;18.10;53.70;;;;;;5039691;28;20203;-80
2023/01/02 01:56:31;;;;;;;10.82;7.10;;;18.10;53.70;;;;;;5039550;28;20271;-79
2023/01/02 01:58:59;;;;;;;11.98;7.18;;;18.10;53.80;;;;;;5040128;28;20522;-80
2023/01/02 02:01:25;;;;;;;10.20;6.63;;;18.10;53.80;;;;;;5039743;28;20203;-80
2023/01/02 02:03:52;;;;;;;10.07;6.88;;;18.10;53.80;;;;;;5039276;28;20203;-80
2023/01/02 02:06:19;;;;;;;11.38;6.80;;;18.10;53.80;;;;;;5038815;28;20199;-79
2023/01/02 02:08:50;;;;;;;11.38;6.68;;;18.10;53.80;;;;;;5040892;28;20286;-80
2023/01/02 02:11:17;;;;;;;9.32;5.95;;;18.00;53.70;;;;;;5062997;28;20190;-80
2023/01/02 02:13:45;;;;;;;10.70;6.60;;;18.00;53.70;;;;;;5040588;28;20209;-80
2023/01/02 02:16:19;;;;;;;10.70;6.28;;;18.00;53.70;;;;;;5041617;28;20204;-79
2023/01/02 02:19:03;;;;;;;10.65;6.50;;;18.00;53.70;;;;;;5040870;28;20192;-80
2023/01/02 02:21:39;;;;;;;10.10;5.95;;;18.00;53.70;;;;;;5041217;28;20195;-80
2023/01/02 02:24:22;;;;;;;10.50;6.65;;;18.00;53.70;;;;;;5059012;28;20163;-80
2023/01/02 02:27:01;;;;;;;9.95;6.30;;;18.00;53.70;;;;;;5040981;28;20223;-80
2023/01/02 02:29:51;;;;;;;6.90;5.32;;;18.00;53.80;;;;;;5041638;28;20199;-80
2023/01/02 02:32:22;;;;;;;9.23;6.15;;;18.00;53.80;;;;;;5059364;28;20183;-80
2023/01/02 02:34:52;;;;;;;9.20;5.90;;;18.00;53.80;;;;;;5041988;28;20195;-81
2023/01/02 02:37:22;;;;;;;7.97;6.05;;;18.00;53.80;;;;;;5042161;28;20225;-80
2023/01/02 02:39:59;;;;;;;10.00;6.13;;;17.90;53.70;;;;;;5041751;28;20555;-80
2023/01/02 02:42:28;;;;;;;9.75;6.15;;;17.90;53.70;;;;;;5041264;28;20209;-81
2023/01/02 02:44:59;;;;;;;8.82;5.65;;;17.90;53.80;;;;;;5041912;28;20206;-81
2023/01/02 02:47:30;;;;;;;9.73;5.72;;;17.90;53.80;;;;;;5041809;28;20717;-80
2023/01/02 02:49:58;;;;;;;7.35;5.80;;;17.90;53.80;;;;;;5041138;28;20223;-80
2023/01/02 02:52:28;;;;;;;10.10;6.15;;;17.90;53.80;;;;;;5040506;28;20218;-80
2023/01/02 02:54:59;;;;;;;7.57;5.13;;;17.90;53.80;;;;;;5041186;28;20188;-80
2023/01/02 02:57:26;;;;;;;9.40;6.03;;;17.90;53.70;;;;;;5047426;28;20226;-79
2023/01/02 02:59:53;;;;;;;9.15;5.40;;;17.90;53.80;;;;;;5060882;28;20188;-80
2023/01/02 03:02:21;;;;;;;8.48;5.35;;;17.90;53.80;;;;;;5044808;28;20200;-80
2023/01/02 03:04:49;;;;;;;9.45;5.63;;;17.90;53.70;;;;;;5044756;28;20203;-80
2023/01/02 03:07:19;;;;;;;8.18;5.13;;;17.90;53.90;;;;;;5044232;28;20230;-79
2023/01/02 03:09:50;;;;;;;8.70;5.13;;;17.90;53.90;;;;;;5042746;28;20239;-80
2023/01/02 03:12:26;;;;;;;7.72;5.57;;;17.80;53.70;;;;;;5040363;28;20325;-80
2023/01/02 03:14:58;;;;;;;8.27;5.60;;;17.90;53.80;;;;;;5037878;28;20195;-79
2023/01/02 03:17:32;;;;;;;8.55;5.45;;;17.80;53.80;;;;;;5037852;28;20606;-80
2023/01/02 03:20:05;;;;;;;7.60;4.88;;;17.80;53.80;;;;;;5055570;28;20179;-80
2023/01/02 03:22:34;;;;;;;7.68;5.10;;;17.90;53.80;;;;;;5038231;28;20203;-81
2023/01/02 03:25:01;;;;;;;9.15;5.13;;;17.80;53.80;;;;;;5038669;28;20203;-80
2023/01/02 03:27:37;;;;;;;8.15;4.97;;;17.70;53.70;;;;;;5038919;28;20226;-79
2023/01/02 03:30:05;;;;;;;6.43;4.35;;;17.80;53.70;;;;;;5043098;28;20217;-80
2023/01/02 03:32:35;;;;;;;6.63;4.97;;;17.80;53.70;;;;;;5037063;28;20245;-80
2023/01/02 03:35:05;;;;;;;5.85;4.80;;;17.70;53.80;;;;;;5037038;28;20223;-80
2023/01/02 03:37:33;;;;;;;6.50;4.55;;;17.70;53.70;;;;;;5037106;28;20230;-80
2023/01/02 03:40:03;;;;;;;6.20;4.60;;;17.70;53.80;;;;;;5037495;28;20197;-81
2023/01/02 03:42:32;;;;;;;7.05;4.45;;;17.70;53.80;;;;;;5037330;28;20222;-81
2023/01/02 03:45:00;;;;;;;7.43;4.63;;;17.70;53.80;;;;;;5044329;28;20203;-80
2023/01/02 03:47:31;;;;;;;8.57;5.05;;;17.70;53.80;;;;;;5038116;28;20273;-80
2023/01/02 03:50:02;;;;;;;8.38;5.50;;;17.70;53.90;;;;;;5038470;28;20710;-80
2023/01/02 03:52:29;;;;;;;7.20;4.63;;;17.70;53.80;;;;;;5056891;28;20667;-80
2023/01/02 03:54:57;;;;;;;7.95;4.60;;;17.70;53.80;;;;;;5056162;28;20188;-80
2023/01/02 03:57:28;;;;;;;6.40;4.65;;;17.70;53.90;;;;;;5039078;28;20211;-80
2023/01/02 03:59:58;;;;;;;5.57;4.07;;;17.70;53.90;;;;;;5038959;28;20251;-80
2023/01/02 04:02:28;;;;;;;7.45;4.05;;;17.70;53.80;;;;;;5039061;28;20199;-80
2023/01/02 04:04:56;;;;;;;6.03;4.43;;;17.70;53.90;;;;;;5039430;28;20298;-80
2023/01/02 04:07:26;;;;;;;8.98;4.43;;;17.60;53.90;;;;;;5040049;28;20682;-80
2023/01/02 04:09:54;;;;;;;5.82;4.13;;;17.60;53.80;;;;;;5040826;28;20235;-80
2023/01/02 04:12:22;;;;;;;9.00;4.80;;;17.60;53.80;;;;;;5039891;28;20203;-80
2023/01/02 04:14:50;;;;;;;5.65;4.10;;;17.60;53.80;;;;;;5039821;28;20630;-79
2023/01/02 04:17:18;;;;;;;5.75;4.50;;;17.60;53.90;;;;;;5040168;28;20219;-79
2023/01/02 04:19:46;;;;;;;6.20;3.97;;;17.60;53.90;;;;;;5040508;28;20257;-80
2023/01/02 04:22:14;;;;;;;5.90;4.03;;;17.60;54.10;;;;;;5041400;28;20206;-80
2023/01/02 04:24:45;;;;;;;5.68;4.10;;;17.70;54.00;;;;;;5056193;28;20191;-79
2023/01/02 04:27:14;;;;;;;6.35;4.18;;;17.70;54.10;;;;;;5039193;28;20712;-81
2023/01/02 04:29:41;;;;;;;7.25;4.20;;;17.60;54.60;;;;;;5039732;28;20221;-80
2023/01/02 04:32:11;;;;;;;6.07;3.90;;;17.70;54.20;;;;;;5045200;28;20219;-80
2023/01/02 04:34:38;;;;;;;5.57;3.90;;;17.70;54.20;;;;;;5039781;28;20238;-80
2023/01/02 04:37:05;;;;;;;5.53;3.80;;;17.70;54.10;;;;;;5057574;28;20215;-80
2023/01/02 04:39:32;;;;;;;5.45;3.70;;;17.70;54.10;;;;;;5039457;28;20195;-80
2023/01/02 04:42:01;;;;;;;5.82;4.32;;;17.70;54.00;;;;;;5039371;28;20245;-80
2023/01/02 04:44:28;;;;;;;8.02;3.80;;;17.80;53.90;;;;;;5038945;28;20195;-81
2023/01/02 04:46:54;;;;;;;5.13;3.65;;;17.80;53.80;;;;;;5039457;28;20585;-81
2023/01/02 04:49:25;;;;;;;5.72;3.80;;;17.90;53.70;;;;;;5038291;28;20651;-81
2023/01/02 04:51:52;;;;;;;5.35;3.70;;;17.90;53.60;;;;;;5037563;28;20215;-80
2023/01/02 04:54:19;;;;;;;4.90;3.78;;;17.80;53.40;;;;;;5037739;28;20199;-80
2023/01/02 04:56:47;;;;;;;4.53;3.35;;;17.90;53.40;;;;;;5037512;28;20222;-80
2023/01/02 04:59:15;;;;;;;6.00;3.92;;;17.90;53.30;;;;;;5037652;28;20203;-81
2023/01/02 05:01:43;;;;;;;4.40;3.42;;;17.90;53.20;;;;;;5039845;28;20234;-80
2023/01/02 05:04:09;;;;;;;5.10;3.78;;;17.90;53.10;;;;;;5057551;28;20269;-80
2023/01/02 05:06:37;;;;;;;5.50;3.28;;;18.00;53.00;;;;;;5039427;28;20270;-80
2023/01/02 05:09:04;;;;;;;5.47;3.45;;;18.00;53.00;;;;;;5039896;28;20204;-81
2023/01/02 05:11:31;;;;;;;4.53;3.17;;;17.90;52.90;;;;;;5039770;28;20638;-80
2023/01/02 05:13:58;;;;;;;5.95;3.40;;;18.00;53.00;;;;;;5051530;28;20192;-80
2023/01/02 05:16:26;;;;;;;6.80;3.83;;;17.90;52.90;;;;;;5054918;28;20191;-80
2023/01/02 05:18:53;;;;;;;6.57;3.30;;;17.90;53.00;;;;;;5041991;28;20195;-81
2023/01/02 05:24:06;;;;;;;6.18;3.78;;;18.00;53.70;;;;;;5040999;28;20207;-81
2023/01/02 05:26:33;;;;;;;4.15;3.30;;;17.90;54.80;;;;;;5041094;28;20322;-81
2023/01/02 05:29:00;;;;;;;7.85;3.78;;;18.00;55.00;;;;;;5044892;28;20222;-80
2023/01/02 05:31:28;;;;;;;5.70;3.25;;;18.00;55.00;;;;;;5047840;28;20222;-80
2023/01/02 05:33:56;;;;;;;4.75;3.40;;;18.00;54.70;;;;;;5060366;28;20188;-81
2023/01/02 05:36:24;;;;;;;5.82;3.67;;;18.00;55.20;;;;;;5042217;28;20204;-80
2023/01/02 05:38:51;;;;;;;5.30;3.45;;;18.10;54.90;;;;;;5042375;28;20206;-81
2023/01/02 05:41:19;;;;;;;5.68;3.80;;;18.20;54.80;;;;;;5042621;28;20199;-81
2023/01/02 05:43:46;;;;;;;4.57;3.80;;;18.30;54.70;;;;;;5041986;28;20206;-80
2023/01/02 05:46:14;;;;;;;6.40;3.47;;;18.30;54.80;;;;;;5043157;28;20199;-80
2023/01/02 05:48:42;;;;;;;4.50;3.30;;;18.30;54.90;;;;;;5042913;28;20567;-80
2023/01/02 05:51:10;;;;;;;5.70;3.50;;;18.40;54.70;;;;;;5042804;28;20216;-79
2023/01/02 05:53:37;;;;;;;5.90;3.10;;;18.30;54.90;;;;;;5043220;28;20195;-80
2023/01/02 05:56:05;;;;;;;5.93;3.55;;;18.40;55.10;;;;;;5044796;28;20773;-79
2023/01/02 05:58:33;;;;;;;6.07;3.60;;;18.40;54.30;;;;;;5043753;28;20238;-79
2023/01/02 06:01:05;;;;;;;4.45;3.00;;;18.40;54.50;;;;;;5039069;28;20191;-79
2023/01/02 06:03:32;;;;;;;4.97;4.00;;;18.40;54.10;;;;;;5042544;28;20227;-80
2023/01/02 06:06:04;;;;;;;5.63;3.35;;;18.30;53.80;;;;;;5046794;28;20210;-80
2023/01/02 06:08:31;;;;;;;5.85;3.47;;;18.30;53.80;;;;;;5040267;28;20215;-80
2023/01/02 06:10:58;;;;;;;4.05;3.17;;;18.30;53.60;;;;;;5027507;28;20269;-80
2023/01/02 06:13:25;;;;;;;5.00;3.35;;;18.30;53.60;;;;;;5040955;28;20328;-80
2023/01/02 06:15:54;;;;;;;4.45;3.55;;;18.20;53.50;;;;;;5040990;28;20231;-80
2023/01/02 06:18:20;;;;;;;4.18;3.00;;;18.20;53.70;;;;;;5040474;28;20220;-80
2023/01/02 06:20:47;;;;;;;3.88;2.97;;;18.20;53.50;;;;;;5040756;28;20249;-80
2023/01/02 06:23:16;;;;;;;4.05;3.25;;;18.20;53.70;;;;;;5041649;28;20202;-79
2023/01/02 06:25:43;;;;;;;5.00;3.42;;;18.20;53.60;;;;;;5042372;28;20203;-80
2023/01/02 06:28:10;;;;;;;6.32;3.63;;;18.20;53.50;;;;;;5041598;28;20233;-81
2023/01/02 06:30:37;;;;;;;4.28;2.83;;;18.20;53.60;;;;;;5038469;28;20704;-81
2023/01/02 06:33:04;;;;;;;4.45;3.00;;;18.20;53.60;;;;;;5038609;28;20196;-81
2023/01/02 06:35:31;;;;;;;4.93;3.20;;;18.10;53.50;;;;;;5038726;28;20195;-81
2023/01/02 06:37:58;;;;;;;5.15;3.20;;;18.10;53.50;;;;;;5038565;28;20310;-80
2023/01/02 06:40:26;;;;;;;4.88;3.30;;;18.10;53.50;;;;;;5038114;28;20643;-80
2023/01/02 06:42:54;;;;;;;4.78;3.00;;;18.10;53.20;;;;;;5038255;28;20229;-81
2023/01/02 06:45:22;;;;;;;4.10;2.97;;;18.10;53.50;;;;;;5037943;28;20572;-80
2023/01/02 06:47:49;;;;;;;5.32;3.30;;;18.10;53.40;;;;;;5038382;28;20225;-80
2023/01/02 06:50:16;;;;;;;3.92;3.10;;;18.10;53.20;;;;;;5038517;28;20271;-81
2023/01/02 06:52:42;;;;;;;4.65;3.30;;;18.20;53.20;;;;;;5044929;28;20192;-80
2023/01/02 06:55:09;;;;;;;5.55;2.97;;;18.20;53.20;;;;;;5038592;28;20219;-80
2023/01/02 06:57:38;;;;;;;3.95;2.80;;;18.20;53.10;;;;;;5038411;28;20223;-80
2023/01/02 07:00:06;;;;;;;4.68;2.63;;;18.20;52.90;;;;;;5038517;28;20655;-80
2023/01/02 07:02:33;;;;;;;4.63;2.92;;;18.20;52.90;;;;;;5038726;28;20241;-80
2023/01/02 07:05:00;;;;;;;3.10;2.47;;;18.20;52.60;;;;;;5038284;28;20289;-80
2023/01/02 07:07:28;;;;;;;3.67;2.88;;;18.20;52.70;;;;;;5055377;28;20265;-80
2023/01/02 07:09:56;;;;;;;3.95;3.28;;;18.20;52.70;;;;;;5038498;28;20191;-80
2023/01/02 07:12:23;;;;;;;4.32;2.70;;;18.20;52.60;;;;;;5037848;28;20219;-81
2023/01/02 07:14:51;;;;;;;4.00;2.97;;;18.20;52.70;;;;;;5037563;28;20196;-80
2023/01/02 07:17:18;;;;;;;3.92;2.80;;;18.20;52.50;;;;;;5038478;28;20256;-80
2023/01/02 07:19:45;;;;;;;3.25;2.67;;;18.20;52.50;;;;;;5037708;28;20389;-80
2023/01/02 07:22:12;;;;;;;3.03;2.35;;;18.20;52.50;;;;;;5037640;28;20192;-80
2023/01/02 07:24:39;;;;;;;4.50;2.72;;;18.20;52.50;;;;;;5037831;28;20198;-80
2023/01/02 07:27:06;;;;;;;3.50;2.80;;;18.10;52.40;;;;;;5038501;28;20215;-80
2023/01/02 07:29:32;;;;;;;3.90;2.92;;;18.10;52.50;;;;;;5038947;28;20194;-80
2023/01/02 07:32:01;;;;;;;4.88;2.60;;;18.10;52.40;;;;;;5038666;28;20562;-80
2023/01/02 07:34:28;;;;;;;6.03;2.95;;;18.10;52.50;;;;;;5039268;28;20199;-80
2023/01/02 07:36:55;;;;;;;3.45;2.80;;;18.10;52.40;;;;;;5040664;28;20220;-80
2023/01/02 07:39:22;;;;;;;3.97;2.72;;;18.10;52.30;;;;;;5045143;28;20202;-80
2023/01/02 07:41:49;;;;;;;3.40;2.78;;;18.10;52.30;;;;;;5037508;28;20191;-80
2023/01/02 07:44:18;;;;;;;3.50;2.83;;;18.10;52.40;;;;;;5037024;28;20249;-80
2023/01/02 07:46:45;;;;;;;5.07;3.30;;;18.10;52.40;;;;;;5036649;28;20768;-80
2023/01/02 07:49:13;;;;;;;3.85;2.85;;;18.10;52.30;;;;;;5036332;28;20206;-80
2023/01/02 07:51:41;;;;;;;4.68;3.00;;;18.10;52.30;;;;;;5039315;28;20222;-80
2023/01/02 07:54:08;;;;;;;5.03;3.00;;;18.10;52.20;;;;;;5042441;28;20663;-81
2023/01/02 07:56:34;;;;;;;5.20;2.90;;;18.20;52.30;;;;;;5042367;28;20219;-80
2023/01/02 07:59:02;;;;;;;4.78;2.90;;;18.20;52.20;;;;;;5042136;28;20681;-80
2023/01/02 08:01:29;;;;;;;3.42;2.70;;;18.20;52.30;;;;;;5042970;28;20194;-80
2023/01/02 08:03:56;;;;;;;4.15;2.75;;;18.20;52.10;;;;;;5043111;28;20294;-81
2023/01/02 08:06:25;;;;;;;4.43;2.50;;;18.20;52.10;;;;;;5043940;28;20207;-80
2023/01/02 08:08:52;;;;;;;4.40;3.00;;;18.20;52.00;;;;;;5043891;28;20195;-81
2023/01/02 08:11:20;;;;;;;5.80;2.90;;;18.20;52.00;;;;;;5062798;28;20297;-80
2023/01/02 08:13:47;;;;;;;4.82;3.00;;;18.20;52.60;;;;;;5045128;28;20286;-80
2023/01/02 08:16:15;;;;;;;3.38;2.88;;;18.20;52.00;;;;;;5042326;28;20727;-80
2023/01/02 08:18:43;;;;;;;3.88;2.85;;;18.20;51.90;;;;;;5044108;28;20267;-81
2023/01/02 08:21:10;;;;;;;3.95;2.90;;;18.20;52.00;;;;;;5044889;28;20195;-81
2023/01/02 08:23:39;;;;;;;3.92;2.80;;;18.30;52.00;;;;;;5047216;28;20203;-80
2023/01/02 08:26:06;;;;;;;3.53;2.80;;;18.30;52.00;;;;;;5052412;28;20211;-80
2023/01/02 08:28:34;;;;;;;4.30;2.78;;;18.30;52.00;;;;;;5044276;28;20729;-80
2023/01/02 08:31:01;;;;;;;3.30;2.63;;;18.30;51.90;;;;;;5043726;28;20211;-80
2023/01/02 08:33:29;;;;;;;3.67;2.75;;;18.30;51.80;;;;;;5041071;28;20253;-81
2023/01/02 08:35:56;;;;;;;3.47;2.40;;;18.30;51.80;;;;;;5038987;28;20206;-80
2023/01/02 08:38:23;;;;;;;3.05;2.67;;;18.30;51.80;;;;;;5038951;28;20221;-80
2023/01/02 08:40:52;;;;;;;4.28;2.78;;;18.40;51.70;;;;;;5056222;28;20191;-80
2023/01/02 08:43:19;;;;;;;4.10;2.58;;;18.50;51.60;;;;;;5037156;28;20226;-80
2023/01/02 08:45:46;;;;;;;3.15;2.40;;;18.50;51.50;;;;;;5037128;28;20683;-80
2023/01/02 08:48:13;;;;;;;3.92;2.60;;;18.60;51.50;;;;;;5037515;28;20224;-80
2023/01/02 08:50:40;;;;;;;3.28;2.40;;;18.60;51.60;;;;;;5038553;28;20202;-80
2023/01/02 08:53:07;;;;;;;5.90;4.10;;;18.60;51.50;;;;;;5037237;28;20250;-80
2023/01/02 08:55:34;;;;;;;7.20;5.38;;;18.70;51.50;;;;;;5037346;28;20199;-80
2023/01/02 08:58:03;;;;;;;9.07;7.18;;;18.70;51.40;;;;;;5038495;28;20215;-80
2023/01/02 09:00:30;;;;;;;8.60;6.57;;;18.80;51.40;;;;;;5037827;28;20199;-80
2023/01/02 09:02:57;;;;;;;6.70;5.53;;;18.80;51.30;;;;;;5057294;28;20183;-80
2023/01/02 09:05:27;;;;;;;8.50;5.32;;;18.90;51.30;;;;;;5040558;28;20222;-80
2023/01/02 09:07:55;;;;;;;5.88;5.13;;;18.90;51.20;;;;;;5041465;28;20238;-80
2023/01/02 09:10:22;;;;;;;5.18;4.22;;;18.90;51.10;;;;;;5042690;28;20659;-80
2023/01/02 09:12:49;;;;;;;5.00;3.70;;;18.90;51.10;;;;;;5042977;28;20218;-80
2023/01/02 09:15:17;;;;;;;6.60;4.40;;;19.00;51.10;;;;;;5047630;28;20195;-80
2023/01/02 09:17:44;;;;;;;8.38;4.95;;;19.00;51.00;;;;;;5041198;28;20219;-80
2023/01/02 09:20:12;;;;;;;13.60;8.10;;;19.00;50.90;;;;;;5042963;28;20195;-80
2023/01/02 09:22:39;;;;;;;10.45;7.07;;;19.00;50.90;;;;;;5041652;28;20191;-80
2023/01/02 09:25:07;;;;;;;5.93;4.68;;;19.00;50.90;;;;;;5041028;28;20214;-81
2023/01/02 09:27:34;;;;;;;5.85;4.22;;;19.00;50.90;;;;;;5040516;28;20270;-80
2023/01/02 09:30:01;;;;;;;6.15;3.90;;;19.00;51.00;;;;;;5038256;28;20203;-80
2023/01/02 09:32:30;;;;;;;5.68;4.22;;;19.00;50.90;;;;;;5040497;28;20220;-80
2023/01/02 09:34:57;;;;;;;6.55;4.55;;;19.00;50.90;;;;;;5040418;28;20286;-81
2023/01/02 09:37:24;;;;;;;4.68;3.63;;;19.10;50.90;;;;;;5040479;28;20211;-80
2023/01/02 09:39:50;;;;;;;5.00;3.70;;;19.10;50.90;;;;;;5040874;28;20685;-81
2023/01/02 09:42:17;;;;;;;6.82;3.78;;;19.10;51.00;;;;;;5040041;28;20200;-81
2023/01/02 09:44:46;;;;;;;5.15;3.35;;;19.10;50.90;;;;;;5057429;28;20195;-80
2023/01/02 09:47:14;;;;;;;6.95;3.22;;;19.10;50.90;;;;;;5057651;28;20211;-80
2023/01/02 09:49:45;;;;;;;7.13;4.40;;;19.10;50.90;;;;;;5039734;28;20675;-81
2023/01/02 09:52:13;;;;;;;4.95;3.40;;;19.20;51.00;;;;;;5039355;28;20218;-81
2023/01/02 09:54:40;;;;;;;5.57;3.88;;;19.10;50.90;;;;;;5039301;28;20202;-80
2023/01/02 09:57:24;;;;;;;4.28;3.08;;;19.10;50.90;;;;;;5056956;28;20282;-81
2023/01/02 09:59:56;;;;;;;7.40;4.13;;;19.20;50.90;;;;;;5056551;28;20663;-81
2023/01/02 10:02:37;;;;;;;6.38;3.75;;;19.20;50.90;;;;;;5048580;28;20198;-80
2023/01/02 10:05:28;;;;;;;4.63;3.35;;;19.20;50.90;;;;;;5043120;28;20199;-81
2023/01/02 10:07:57;;;;;;;5.22;3.20;;;19.20;50.80;;;;;;5031013;28;20567;-80
2023/01/02 10:10:26;;;;;;;5.10;3.67;;;19.20;50.80;;;;;;5043905;28;20195;-80
2023/01/02 10:12:57;;;;;;;5.38;4.28;;;19.20;50.80;;;;;;5043400;28;20219;-80
2023/01/02 10:15:25;;;;;;;8.25;5.10;;;19.20;50.80;;;;;;5042649;28;20215;-80
2023/01/02 10:17:56;;;;;;;8.02;6.10;;;19.30;50.90;;;;;;5043520;28;20705;-80
2023/01/02 10:20:27;;;;;;;6.40;4.65;;;19.30;50.90;;;;;;5043159;28;20195;-80
2023/01/02 10:22:57;;;;;;;7.28;4.55;;;19.30;50.70;;;;;;5039739;28;20184;-80
2023/01/02 10:25:26;;;;;;;6.53;4.45;;;19.30;50.70;;;;;;5040144;28;20195;-81
2023/01/02 10:27:54;;;;;;;4.28;3.85;;;19.30;50.50;;;;;;5040027;28;20219;-80
2023/01/02 10:30:22;;;;;;;5.35;3.72;;;19.30;50.50;;;;;;5039792;28;20539;-81
2023/01/02 10:32:53;;;;;;;7.78;4.70;;;19.30;50.40;;;;;;5039136;28;20215;-80
2023/01/02 10:35:33;;;;;;;7.47;4.60;;;19.40;50.50;;;;;;5039753;28;20187;-81
2023/01/02 10:38:00;;;;;;;5.50;4.03;;;19.40;50.50;;;;;;5040534;28;20222;-80
2023/01/02 10:40:27;;;;;;;4.90;3.72;;;19.40;50.30;;;;;;5040237;28;20205;-80
2023/01/02 10:42:56;;;;;;;5.78;4.22;;;19.40;50.20;;;;;;5040643;28;20206;-80
2023/01/02 10:45:23;;;;;;;5.72;3.80;;;19.40;50.30;;;;;;5040508;28;20290;-80
2023/01/02 10:47:50;;;;;;;4.50;3.95;;;19.40;50.30;;;;;;5045122;28;20227;-80
2023/01/02 10:50:18;;;;;;;7.05;4.90;;;19.40;50.30;;;;;;5044594;28;20212;-81
2023/01/02 10:52:49;;;;;;;4.75;3.70;;;19.40;50.30;;;;;;5043392;28;20216;-81
2023/01/02 10:55:29;;;;;;;6.13;4.00;;;19.40;50.50;;;;;;5044121;28;20219;-79
2023/01/02 10:57:56;;;;;;;5.13;3.65;;;19.40;50.70;;;;;;5044196;28;20625;-80
2023/01/02 11:00:27;;;;;;;5.15;3.08;;;19.40;50.70;;;;;;5061540;28;20253;-80
2023/01/02 11:02:55;;;;;;;3.63;3.10;;;19.40;50.50;;;;;;5044042;28;20197;-81
2023/01/02 11:05:24;;;;;;;4.30;3.45;;;19.40;50.50;;;;;;5044239;28;20199;-81
2023/01/02 11:07:53;;;;;;;3.42;2.83;;;19.40;50.40;;;;;;5044901;28;20238;-80
2023/01/02 11:10:23;;;;;;;3.90;3.30;;;19.50;50.50;;;;;;5044975;28;20234;-80
2023/01/02 11:12:50;;;;;;;4.95;2.75;;;19.50;50.70;;;;;;5045630;28;20223;-80
2023/01/02 11:15:24;;;;;;;4.22;2.97;;;19.50;50.30;;;;;;5046340;28;20199;-80
2023/01/02 11:17:51;;;;;;;6.47;3.17;;;19.50;50.20;;;;;;5052233;28;20219;-80
2023/01/02 11:20:28;;;;;;;5.15;3.15;;;19.50;50.30;;;;;;5054522;28;20204;-80
2023/01/02 11:22:58;;;;;;;3.50;2.92;;;19.50;50.30;;;;;;5039694;28;20593;-80
2023/01/02 11:25:26;;;;;;;3.97;2.85;;;19.60;50.30;;;;;;5037054;28;20562;-81
2023/01/02 11:27:57;;;;;;;5.88;2.88;;;19.60;50.10;;;;;;5038073;28;20614;-80
2023/01/02 11:30:34;;;;;;;5.05;3.45;;;19.70;50.00;;;;;;5037937;28;20195;-81
2023/01/02 11:33:07;;;;;;;4.18;3.30;;;19.70;49.80;;;;;;5037592;28;20262;-81
2023/01/02 11:35:39;;;;;;;5.85;3.63;;;19.70;49.80;;;;;;5044045;28;20211;-80
2023/01/02 11:38:14;;;;;;;3.97;3.30;;;19.80;49.90;;;;;;5038165;28;20251;-80
2023/01/02 11:40:51;;;;;;;4.97;2.97;;;19.70;49.90;;;;;;5038220;28;20195;-80
2023/01/02 11:46:08;;;;;;;3.95;2.80;;;19.70;50.00;;;;;;5038393;28;20188;-81
2023/01/02 11:48:37;;;;;;;3.25;2.50;;;19.80;50.10;;;;;;5038141;28;20195;-80
2023/01/02 11:51:08;;;;;;;3.65;2.63;;;19.80;50.10;;;;;;5036982;28;20221;-80
2023/01/02 11:53:38;;;;;;;3.95;2.90;;;19.80;50.10;;;;;;5037877;28;20211;-79
2023/01/02 11:56:07;;;;;;;6.35;3.15;;;19.80;50.10;;;;;;5036905;28;20196;-80
2023/01/02 11:58:37;;;;;;;3.53;2.60;;;19.90;50.00;;;;;;5036940;28;20223;-80
2023/01/02 12:01:05;;;;;;;4.50;2.88;;;19.80;49.80;;;;;;5037644;28;20222;-81
2023/01/02 12:03:33;;;;;;;3.40;2.60;;;19.90;49.80;;;;;;5037470;28;20199;-83
2023/01/02 12:06:10;;;;;;;3.63;2.70;;;19.90;49.80;;;;;;5038099;28;20224;-82
2023/01/02 12:08:41;;;;;;;3.58;2.70;;;19.90;50.00;;;;;;5038241;28;20698;-81
2023/01/02 12:11:13;;;;;;;4.15;3.20;;;19.80;49.70;;;;;;5041817;28;20199;-83
2023/01/02 12:14:00;;;;;;;4.03;2.80;;;19.90;49.60;;;;;;5037400;28;20231;-83
2023/01/02 12:16:35;;;;;;;3.17;2.70;;;19.90;49.60;;;;;;5038274;28;20568;-80
2023/01/02 12:19:25;;;;;;;4.00;2.78;;;19.90;49.50;;;;;;5039668;28;20746;-80
2023/01/02 12:21:56;;;;;;;4.60;2.85;;;19.90;49.70;;;;;;5030160;28;20214;-80
2023/01/02 12:24:35;;;;;;;4.28;2.80;;;19.90;49.70;;;;;;5044893;28;20203;-80
2023/01/02 12:27:05;;;;;;;5.28;2.92;;;19.80;49.50;;;;;;5038844;28;20219;-80
2023/01/02 12:29:40;;;;;;;4.00;2.58;;;19.90;49.80;;;;;;5039967;28;20195;-80
2023/01/02 12:32:26;;;;;;;3.42;2.78;;;19.90;49.70;;;;;;5037644;28;20672;-81
2023/01/02 12:35:04;;;;;;;5.70;2.88;;;19.90;49.70;;;;;;5037799;28;20195;-80
2023/01/02 12:37:36;;;;;;;3.10;2.60;;;19.90;49.20;;;;;;5041447;28;20268;-80
2023/01/02 12:40:23;;;;;;;3.22;2.53;;;19.90;49.30;;;;;;5042084;28;20658;-80
2023/01/02 12:43:08;;;;;;;3.92;2.38;;;19.90;49.50;;;;;;5042080;28;20266;-81
2023/01/02 12:45:39;;;;;;;3.17;2.72;;;19.90;49.50;;;;;;5041923;28;20203;-80
2023/01/02 12:48:13;;;;;;;3.38;2.60;;;19.90;49.60;;;;;;5059467;28;20630;-80
2023/01/02 12:50:51;;;;;;;3.45;2.60;;;19.90;49.50;;;;;;5041836;28;20213;-81
2023/01/02 12:53:23;;;;;;;3.83;2.75;;;19.90;49.60;;;;;;5041359;28;20211;-80
2023/01/02 12:55:55;;;;;;;2.97;2.55;;;19.90;49.40;;;;;;5042021;28;20191;-80
2023/01/02 12:58:29;;;;;;;4.75;2.60;;;19.90;49.50;;;;;;5041137;28;20233;-80
2023/01/02 13:01:00;;;;;;;3.17;2.50;;;20.00;49.50;;;;;;5041038;28;20199;-80